Aviation Digital Data Service (ADDS)

Output produced by METARs form (2254 UTC 19 April 2015)
found at http://aviationweather.gov/adds/metars/
 
KSBY 191958Z 1920/2018 09013G23KT P6SM OVC025 
     TEMPO 1920/1923 SCT030 
     FM192300 09012G22KT 5SM BR BKN025 OVC100 
     FM200600 12015G25KT 3SM RA BR OVC008 
     FM200900 15016KT 2SM RA BR OVC005 
     FM201300 18013G19KT 3SM -DZ BR OVC003 
     FM201700 22011G18KT P6SM OVC015